createdAt,value
2019-02-08T00:02:36.510Z,8.59
2019-02-08T00:08:31.522Z,9.13
2019-02-08T00:14:26.526Z,7.87
2019-02-08T00:20:21.640Z,6.62
2019-02-08T00:26:16.579Z,9.41
2019-02-08T00:32:11.524Z,9.72
2019-02-08T00:38:06.575Z,8.76
2019-02-08T00:44:01.540Z,9.23
2019-02-08T00:49:56.588Z,9.74
2019-02-08T00:55:51.595Z,10.03
2019-02-08T01:01:46.582Z,9.57
2019-02-08T01:07:41.558Z,19.72
2019-02-08T01:13:36.559Z,16.1
2019-02-08T01:19:31.570Z,13.79
2019-02-08T01:25:26.596Z,9.15
2019-02-08T01:31:21.561Z,8.75
2019-02-08T01:37:16.568Z,8.75
2019-02-08T01:43:11.563Z,9.33
2019-02-08T01:49:06.632Z,8.77
2019-02-08T01:55:01.592Z,10
2019-02-08T02:00:56.596Z,10.77
2019-02-08T02:06:51.638Z,10.59
2019-02-08T02:12:46.591Z,10.25
2019-02-08T02:18:41.589Z,10.68
2019-02-08T02:24:36.673Z,10.47
2019-02-08T02:30:31.614Z,10.28
2019-02-08T02:36:26.663Z,10.06
2019-02-08T02:42:21.628Z,8.98
2019-02-08T02:48:16.635Z,7.84
2019-02-08T02:54:11.613Z,7.89
2019-02-08T03:00:06.641Z,8.11
2019-02-08T03:06:01.616Z,7
2019-02-08T03:11:56.621Z,6.66
2019-02-08T03:17:51.659Z,6.35
2019-02-08T03:23:46.649Z,7.17
2019-02-08T03:29:41.627Z,8.11
2019-02-08T03:35:36.664Z,8.35
2019-02-08T03:41:31.670Z,8.19
2019-02-08T03:47:26.666Z,8.62
2019-02-08T03:53:21.642Z,7.67
2019-02-08T03:59:16.628Z,7.2
2019-02-08T04:05:11.700Z,6.98
2019-02-08T04:11:06.680Z,6.76
2019-02-08T04:17:01.680Z,7.04
2019-02-08T04:22:56.673Z,9.45
2019-02-08T04:28:51.738Z,10.79
2019-02-08T04:34:46.675Z,11.38
2019-02-08T04:40:41.685Z,11.4
2019-02-08T04:46:36.730Z,11.05
2019-02-08T04:52:31.686Z,11.26
2019-02-08T04:58:34.366Z,10.88
2019-02-08T05:04:21.680Z,11.25
2019-02-08T05:10:16.714Z,10.7
2019-02-08T05:16:11.710Z,10.54
2019-02-08T05:22:06.695Z,11.17
2019-02-08T05:28:01.724Z,10.09
2019-02-08T05:33:56.696Z,10.93
2019-02-08T05:39:51.712Z,9.62
2019-02-08T05:45:46.759Z,16.6
2019-02-08T05:51:41.737Z,13.34
2019-02-08T05:57:36.703Z,15.37
2019-02-08T06:03:31.726Z,10.47
2019-02-08T06:09:26.711Z,8.68
2019-02-08T06:15:21.717Z,12.1
2019-02-08T06:21:16.776Z,12.99
2019-02-08T06:27:11.740Z,12.7
2019-02-08T06:33:06.724Z,8.72
2019-02-08T06:39:01.725Z,9.27
2019-02-08T06:44:56.748Z,10.87
2019-02-08T06:50:51.749Z,10.23
2019-02-08T06:56:46.733Z,10.33
2019-02-08T07:02:41.738Z,11.72
2019-02-08T07:08:36.734Z,10.17
2019-02-08T07:14:31.782Z,8.91
2019-02-08T07:20:26.732Z,10
2019-02-08T07:26:21.769Z,7.95
2019-02-08T07:32:16.765Z,9.2
2019-02-08T07:38:11.775Z,10.43
2019-02-08T07:44:06.761Z,13.39
2019-02-08T07:50:01.741Z,16.02
2019-02-08T07:55:56.766Z,21.2
2019-02-08T08:01:51.783Z,21.13
2019-02-08T08:07:46.800Z,23.43
2019-02-08T08:13:41.770Z,20.56
2019-02-08T08:19:36.783Z,20.78
2019-02-08T08:25:33.980Z,18.88
2019-02-08T08:31:26.827Z,17.27
2019-02-08T08:37:21.815Z,20.36
2019-02-08T08:43:16.794Z,22.93
2019-02-08T08:49:11.841Z,20.64
2019-02-08T08:55:06.808Z,19.13
2019-02-08T09:01:01.819Z,20.6
2019-02-08T09:06:56.805Z,20.02
2019-02-08T09:12:51.822Z,17.55
2019-02-08T09:18:46.803Z,17.32
2019-02-08T09:24:41.850Z,16.29
2019-02-08T09:30:36.821Z,16.97
2019-02-08T09:36:31.825Z,18.28
2019-02-08T09:42:26.811Z,16.38
2019-02-08T09:48:21.838Z,17.32
2019-02-08T09:54:16.818Z,17.88
2019-02-08T10:00:11.877Z,20.07
2019-02-08T10:06:06.872Z,20.41
2019-02-08T10:12:01.830Z,22.53
2019-02-08T10:17:56.847Z,20.29
2019-02-08T10:23:51.849Z,20.17
2019-02-08T10:29:46.845Z,18.78
2019-02-08T10:35:41.848Z,14.24
2019-02-08T10:41:36.883Z,13.54
2019-02-08T10:47:31.849Z,12.07
2019-02-08T10:53:26.869Z,12.37
2019-02-08T10:59:21.862Z,12.28
2019-02-08T11:05:16.884Z,12.68
2019-02-08T11:11:11.866Z,12.87
2019-02-08T11:17:06.915Z,8.93
2019-02-08T11:23:01.887Z,7.53
2019-02-08T11:28:56.901Z,5.15
2019-02-08T11:34:51.902Z,9.7
2019-02-08T11:40:46.880Z,8.3
2019-02-08T11:46:41.886Z,8.52
2019-02-08T11:52:36.893Z,10.13
2019-02-08T11:58:31.893Z,8.02
2019-02-08T12:04:26.896Z,15.04
2019-02-08T12:10:21.899Z,15.15
2019-02-08T12:16:16.910Z,7.94
2019-02-08T12:22:11.909Z,7.72
2019-02-08T12:28:06.939Z,9.76
2019-02-08T12:34:01.925Z,17.59
2019-02-08T12:39:56.912Z,9.29
2019-02-08T12:45:51.986Z,7.54
2019-02-08T12:51:46.978Z,6.01
2019-02-08T12:57:41.937Z,27.32
2019-02-08T13:03:36.955Z,26.99
2019-02-08T13:09:31.940Z,13.5
2019-02-08T13:15:26.938Z,5.88
2019-02-08T13:21:21.942Z,4.62
2019-02-08T13:27:16.943Z,3.32
2019-02-08T13:33:11.942Z,8.91
2019-02-08T13:39:06.945Z,6.17
2019-02-08T13:45:01.995Z,7.5
2019-02-08T13:50:56.955Z,4.64
2019-02-08T13:56:51.954Z,13.21
2019-02-08T14:02:46.956Z,3.31
2019-02-08T14:08:41.966Z,7.91
2019-02-08T14:14:36.959Z,12.03
2019-02-08T14:20:31.974Z,9.74
2019-02-08T14:26:26.973Z,12.86
2019-02-08T14:32:21.992Z,4.02
2019-02-08T14:38:16.978Z,10.11
2019-02-08T14:44:11.982Z,4.82
2019-02-08T14:50:06.995Z,16.37
2019-02-08T14:56:02.002Z,6.85
2019-02-08T15:01:56.991Z,16.9
2019-02-08T15:07:52.035Z,16.04
2019-02-08T15:13:47.037Z,8.94
2019-02-08T15:19:42.022Z,5.76
2019-02-08T15:25:37.023Z,6.08
2019-02-08T15:31:32.021Z,13.44
2019-02-08T15:37:27.059Z,5.57
2019-02-08T15:43:22.020Z,13.63
2019-02-08T15:49:17.007Z,9.34
2019-02-08T15:55:12.039Z,7.56
2019-02-08T16:01:07.035Z,7.27
2019-02-08T16:07:02.021Z,8.64
2019-02-08T16:12:57.034Z,6.03
2019-02-08T16:18:52.040Z,7.47
2019-02-08T16:24:47.046Z,8.48
2019-02-08T16:30:42.035Z,6.68
2019-02-08T16:36:37.023Z,8.09
2019-02-08T16:42:32.061Z,6.42
2019-02-08T16:48:27.072Z,6.5
2019-02-08T16:54:22.061Z,9.57
2019-02-08T17:00:17.055Z,12.07
2019-02-08T17:06:12.064Z,7.36
2019-02-08T17:12:07.066Z,7.67
2019-02-08T17:18:02.091Z,8.21
2019-02-08T17:23:57.087Z,7.3
2019-02-08T17:29:52.085Z,12.8
2019-02-08T17:35:47.097Z,9.29
2019-02-08T17:41:42.105Z,10.3
2019-02-08T17:47:37.082Z,8.28
2019-02-08T17:53:32.062Z,7.32
2019-02-08T17:59:27.081Z,8.3
2019-02-08T18:05:22.122Z,8.16
2019-02-08T18:11:17.101Z,9.8
2019-02-08T18:17:12.107Z,7.89
2019-02-08T18:23:07.156Z,17.63
2019-02-08T18:29:02.124Z,26.28
2019-02-08T18:34:57.127Z,25.85
2019-02-08T18:40:52.112Z,11.17
2019-02-08T18:46:47.134Z,6.28
2019-02-08T18:52:42.108Z,11.46
2019-02-08T18:58:37.133Z,20.64
2019-02-08T19:04:32.141Z,16.85
2019-02-08T19:10:27.219Z,12.77
2019-02-08T19:16:22.180Z,26.86
2019-02-08T19:22:17.149Z,24.73
2019-02-08T19:28:12.148Z,15.87
2019-02-08T19:34:07.132Z,10.43
2019-02-08T19:40:02.175Z,11.34
2019-02-08T19:45:57.147Z,11.02
2019-02-08T19:51:52.149Z,13.61
2019-02-08T19:57:47.146Z,8.69
2019-02-08T20:03:42.164Z,7.16
2019-02-08T20:09:37.151Z,6.99
2019-02-08T20:15:32.174Z,5.38
2019-02-08T20:21:27.153Z,6.45
2019-02-08T20:27:22.185Z,10.33
2019-02-08T20:33:17.163Z,9.22
2019-02-08T20:39:12.216Z,12.38
2019-02-08T20:45:07.170Z,12.99
2019-02-08T20:51:02.190Z,15.7
2019-02-08T20:56:58.874Z,13.47
2019-02-08T21:02:52.199Z,20.01
2019-02-08T21:08:47.227Z,22.35
2019-02-08T21:14:42.197Z,24.8
2019-02-08T21:20:37.192Z,28.63
2019-02-08T21:26:32.201Z,13.85
2019-02-08T21:32:27.193Z,9.62
2019-02-08T21:38:22.258Z,10.06
2019-02-08T21:44:17.219Z,11.75
2019-02-08T21:50:12.214Z,10.13
2019-02-08T21:56:07.214Z,8.92
2019-02-08T22:02:02.224Z,9.19
2019-02-08T22:07:57.248Z,11.87
2019-02-08T22:13:52.219Z,12.85
2019-02-08T22:19:47.233Z,10.56
2019-02-08T22:25:42.258Z,9.83
2019-02-08T22:31:37.247Z,8.96
2019-02-08T22:37:32.292Z,7.71
2019-02-08T22:43:27.252Z,9.83
2019-02-08T22:49:22.287Z,10.42
2019-02-08T22:55:17.261Z,12.44
2019-02-08T23:01:12.258Z,15.14
2019-02-08T23:07:07.241Z,9.74
2019-02-08T23:13:02.270Z,8.68
2019-02-08T23:18:57.287Z,9.35
2019-02-08T23:24:52.256Z,27.39
2019-02-08T23:30:47.300Z,34.26
2019-02-08T23:36:42.250Z,16.4
2019-02-08T23:42:37.309Z,9.15
2019-02-08T23:48:32.281Z,9.45
2019-02-08T23:54:27.272Z,12.05
